< Typhoon 199305 1993 Season Typhoon 199307 >
Typhoon 199306 (PERCY)
General InformationTrack Information on Google MapsDetailed Wind InformationList of All Images || Disaster Info.ResourceGoogle EarthGE AnimationAtom FeedGeoJSON
Detalied Best Track (Time Zone = UTC)
Year Month Day Hour Lat. Long. Pressure (hPa) Wind (kt) Class Image Chart
1993 7 27 06 21.0 130.4 1002 0 2 Image Chart
1993 7 27 12 21.6 129.9 1002 0 2 Image Chart
1993 7 27 18 22.3 129.6 1000 0 2 Image Chart
1993 7 28 00 23.3 129.2 998 0 2 Image Chart
1993 7 28 06 24.3 128.7 994 40 3 Image Chart
1993 7 28 09 24.7 128.5 992 40 3 Image Chart
1993 7 28 12 25.2 128.4 990 45 3 Image Chart
1993 7 28 15 25.7 128.4 985 50 4 Image Chart
1993 7 28 18 26.3 128.4 980 55 4 Image Chart
1993 7 28 21 26.9 128.5 980 55 4 Image Chart
1993 7 29 00 27.6 128.7 975 60 4 Image Chart
1993 7 29 03 28.4 128.8 975 60 4 Image Chart
1993 7 29 06 29.4 128.9 975 60 4 Image Chart
1993 7 29 09 30.7 129.2 975 60 4 Image Chart
1993 7 29 12 31.7 129.4 975 60 4 Image Chart
1993 7 29 14 32.5 129.7 980 55 4 Image Chart
1993 7 29 15 32.9 129.9 980 55 4 Image Chart
1993 7 29 18 34.2 130.4 980 55 4 Image Chart
1993 7 29 21 35.7 131.3 980 55 4 Image Chart
1993 7 30 00 37.1 132.3 985 50 4 Image Chart
1993 7 30 03 38.1 133.2 985 50 4 Image Chart
1993 7 30 06 39.2 134.2 990 45 3 Image Chart
1993 7 30 12 40.5 135.5 994 0 6 Image Chart
1993 7 30 18 41.5 136.5 996 0 6 Image Chart
1993 7 31 00 42.0 137.0 996 0 6 Image Chart
1993 7 31 06 42.5 138.0 996 0 6 Image Chart
1993 7 31 12 42.5 139.0 998 0 6 Image Chart
1993 7 31 18 41.5 141.0 1000 0 6 Image Chart
1993 8 1 00 40.5 142.5 1004 0 6 Image Chart
Japan Meteorological Agency Best Track Data | Correction Date : 1994-01-10
< Typhoon 199305 1993 Season Typhoon 199307 >

Help